createdAt,value
2019-05-17T00:02:26.628Z,10.40
2019-05-17T00:04:56.242Z,10.40
2019-05-17T00:07:23.321Z,10.40
2019-05-17T00:09:50.731Z,10.40
2019-05-17T00:12:18.159Z,10.40
2019-05-17T00:14:47.244Z,10.30
2019-05-17T00:17:17.171Z,10.30
2019-05-17T00:19:46.366Z,10.30
2019-05-17T00:22:13.250Z,10.30
2019-05-17T00:24:41.171Z,10.30
2019-05-17T00:27:08.572Z,10.20
2019-05-17T00:29:37.126Z,10.30
2019-05-17T00:32:06.443Z,10.30
2019-05-17T00:34:33.874Z,10.30
2019-05-17T00:37:01.287Z,10.30
2019-05-17T00:39:28.876Z,10.30
2019-05-17T00:41:57.345Z,10.30
2019-05-17T00:44:27.091Z,10.30
2019-05-17T00:46:54.543Z,10.30
2019-05-17T00:49:21.932Z,10.30
2019-05-17T00:51:49.335Z,10.30
2019-05-17T00:54:17.398Z,10.30
2019-05-17T00:56:46.379Z,10.40
2019-05-17T00:59:13.886Z,10.40
2019-05-17T01:01:41.367Z,10.40
2019-05-17T01:04:08.771Z,10.50
2019-05-17T01:06:37.569Z,10.40
2019-05-17T01:09:07.745Z,10.40
2019-05-17T01:11:36.580Z,10.20
2019-05-17T01:14:06.661Z,10.20
2019-05-17T01:16:33.730Z,10.10
2019-05-17T01:19:01.146Z,10.10
2019-05-17T01:21:28.552Z,10.00
2019-05-17T01:23:56.315Z,10.10
2019-05-17T01:26:23.796Z,10.10
2019-05-17T01:28:51.186Z,10.10
2019-05-17T01:31:18.691Z,10.20
2019-05-17T01:33:47.030Z,10.20
2019-05-17T01:36:14.573Z,10.20
2019-05-17T01:38:42.850Z,10.20
2019-05-17T01:41:10.530Z,10.20
2019-05-17T01:43:38.466Z,10.20
2019-05-17T01:46:06.738Z,10.10
2019-05-17T01:48:36.363Z,10.10
2019-05-17T01:51:03.478Z,10.10
2019-05-17T01:53:31.009Z,10.10
2019-05-17T01:55:58.416Z,10.10
2019-05-17T01:58:26.950Z,10.10
2019-05-17T02:00:57.153Z,10.00
2019-05-17T02:03:23.698Z,10.00
2019-05-17T02:05:51.090Z,10.00
2019-05-17T02:08:18.642Z,10.00
2019-05-17T02:10:46.600Z,10.00
2019-05-17T02:13:16.291Z,10.10
2019-05-17T02:15:43.382Z,10.00
2019-05-17T02:18:10.806Z,10.00
2019-05-17T02:20:38.203Z,10.00
2019-05-17T02:23:07.252Z,10.00
2019-05-17T02:25:36.963Z,10.00
2019-05-17T02:28:07.228Z,9.90
2019-05-17T02:30:34.716Z,9.90
2019-05-17T02:33:03.724Z,9.90
2019-05-17T02:35:33.660Z,9.90
2019-05-17T02:38:02.950Z,9.80
2019-05-17T02:40:33.458Z,9.80
2019-05-17T02:43:02.797Z,9.80
2019-05-17T02:45:32.401Z,9.70
2019-05-17T02:47:58.684Z,9.60
2019-05-17T02:50:26.100Z,9.60
2019-05-17T02:52:53.515Z,9.50
2019-05-17T02:55:23.303Z,9.50
2019-05-17T02:57:52.880Z,9.40
2019-05-17T03:00:23.646Z,9.40
2019-05-17T03:02:49.215Z,9.40
2019-05-17T03:05:16.829Z,9.30
2019-05-17T03:07:44.591Z,9.30
2019-05-17T03:10:22.768Z,9.30
2019-05-17T03:12:44.487Z,9.20
2019-05-17T03:15:13.109Z,9.20
2019-05-17T03:17:43.463Z,9.10
2019-05-17T03:20:12.825Z,9.10
2019-05-17T03:22:39.650Z,9.00
2019-05-17T03:25:07.248Z,9.00
2019-05-17T03:27:34.651Z,8.90
2019-05-17T03:30:04.066Z,8.70
2019-05-17T03:32:35.970Z,8.60
2019-05-17T03:35:07.040Z,8.60
2019-05-17T03:37:36.793Z,8.50
2019-05-17T03:40:04.686Z,8.50
2019-05-17T03:42:29.610Z,8.40
2019-05-17T03:44:57.261Z,8.30
2019-05-17T03:47:24.656Z,8.20
2019-05-17T03:49:53.755Z,8.10
2019-05-17T03:52:22.400Z,8.00
2019-05-17T03:54:52.987Z,7.80
2019-05-17T03:57:19.293Z,7.80
2019-05-17T03:59:46.731Z,7.70
2019-05-17T04:02:14.144Z,7.60
2019-05-17T04:04:42.907Z,7.60
2019-05-17T04:07:12.778Z,7.50
2019-05-17T04:09:43.728Z,7.50
2019-05-17T04:12:13.612Z,7.50
2019-05-17T04:14:42.946Z,7.50
2019-05-17T04:17:12.835Z,7.50
2019-05-17T04:19:42.497Z,7.40
2019-05-17T04:22:13.894Z,7.50
2019-05-17T04:24:43.588Z,7.50
2019-05-17T04:27:09.375Z,7.50
2019-05-17T04:29:37.067Z,7.40
2019-05-17T04:32:04.485Z,7.40
2019-05-17T04:34:33.593Z,7.50
2019-05-17T04:37:04.000Z,7.50
2019-05-17T04:39:32.496Z,7.60
2019-05-17T04:41:59.484Z,7.70
2019-05-17T04:44:26.925Z,7.70
2019-05-17T04:46:54.332Z,7.90
2019-05-17T04:49:24.259Z,7.90
2019-05-17T04:51:52.538Z,8.00
2019-05-17T04:54:22.692Z,8.00
2019-05-17T04:56:49.287Z,8.00
2019-05-17T04:59:16.850Z,8.10
2019-05-17T05:01:44.263Z,8.20
2019-05-17T05:04:15.105Z,8.30
2019-05-17T05:06:43.587Z,8.40
2019-05-17T05:09:12.694Z,8.50
2019-05-17T05:11:53.155Z,8.60
2019-05-17T05:14:12.799Z,8.70
2019-05-17T05:16:42.233Z,8.70
2019-05-17T05:19:09.383Z,8.80
2019-05-17T05:21:36.818Z,8.90
2019-05-17T05:24:04.237Z,9.00
2019-05-17T05:26:31.868Z,9.10
2019-05-17T05:29:02.174Z,9.20
2019-05-17T05:31:28.908Z,9.30
2019-05-17T05:33:56.290Z,9.40
2019-05-17T05:36:23.726Z,9.50
2019-05-17T05:38:51.609Z,9.60
2019-05-17T05:41:19.004Z,9.70
2019-05-17T05:43:46.471Z,9.90
2019-05-17T05:46:13.874Z,10.00
2019-05-17T05:48:41.728Z,10.10
2019-05-17T05:51:09.526Z,10.20
2019-05-17T05:53:36.926Z,10.30
2019-05-17T05:56:04.337Z,10.40
2019-05-17T05:58:32.329Z,10.50
2019-05-17T06:01:02.224Z,10.50
2019-05-17T06:03:29.114Z,10.60
2019-05-17T06:05:56.553Z,10.70
2019-05-17T06:08:23.938Z,10.80
2019-05-17T06:10:53.161Z,10.90
2019-05-17T06:13:21.840Z,11.00
2019-05-17T06:15:51.670Z,11.20
2019-05-17T06:18:19.410Z,11.30
2019-05-17T06:20:47.250Z,11.50
2019-05-17T06:23:14.651Z,11.60
2019-05-17T06:25:43.447Z,11.70
2019-05-17T06:28:11.716Z,11.80
2019-05-17T06:30:39.200Z,11.90
2019-05-17T06:33:06.595Z,12.10
2019-05-17T06:35:34.074Z,12.20
2019-05-17T06:38:01.908Z,12.30
2019-05-17T06:40:29.481Z,12.30
2019-05-17T06:42:57.058Z,12.40
2019-05-17T06:45:24.475Z,12.50
2019-05-17T06:47:51.942Z,12.60
2019-05-17T06:50:19.814Z,12.60
2019-05-17T06:52:47.202Z,12.70
2019-05-17T06:55:14.614Z,12.80
2019-05-17T06:57:43.371Z,13.00
2019-05-17T07:00:18.220Z,13.10
2019-05-17T07:02:40.926Z,13.20
2019-05-17T07:05:11.204Z,13.30
2019-05-17T07:07:40.561Z,13.40
2019-05-17T07:10:11.150Z,13.50
2019-05-17T07:12:51.099Z,13.60
2019-05-17T07:15:07.655Z,13.70
2019-05-17T07:17:35.283Z,13.70
2019-05-17T07:20:02.918Z,13.80
2019-05-17T07:22:30.321Z,13.80
2019-05-17T07:24:59.796Z,13.80
2019-05-17T07:27:37.840Z,13.90
2019-05-17T07:29:56.146Z,14.00
2019-05-17T07:32:23.531Z,14.00
2019-05-17T07:34:51.178Z,14.00
2019-05-17T07:37:19.566Z,14.10
2019-05-17T07:39:57.777Z,14.10
2019-05-17T07:42:16.302Z,14.20
2019-05-17T07:44:44.113Z,14.30
2019-05-17T07:47:11.612Z,14.40
2019-05-17T07:49:40.500Z,14.60
2019-05-17T07:52:10.187Z,14.70
2019-05-17T07:54:39.779Z,14.80
2019-05-17T07:57:06.636Z,14.90
2019-05-17T07:59:34.026Z,15.00
2019-05-17T08:02:01.458Z,15.10
2019-05-17T08:04:29.924Z,15.20
2019-05-17T08:06:59.696Z,15.30
2019-05-17T08:09:26.734Z,15.40
2019-05-17T08:11:54.367Z,15.40
2019-05-17T08:14:29.912Z,15.50
2019-05-17T08:16:51.146Z,15.40
2019-05-17T08:19:20.486Z,15.50
2019-05-17T08:21:50.088Z,15.60
2019-05-17T08:24:19.527Z,15.70
2019-05-17T08:26:46.435Z,15.70
2019-05-17T08:29:13.833Z,15.90
2019-05-17T08:31:41.246Z,16.00
2019-05-17T08:34:10.410Z,16.00
2019-05-17T08:36:40.301Z,16.10
2019-05-17T08:39:07.122Z,16.20
2019-05-17T08:41:35.730Z,16.30
2019-05-17T08:44:03.685Z,16.40
2019-05-17T08:46:31.074Z,16.50
2019-05-17T08:49:00.242Z,16.50
2019-05-17T08:51:30.294Z,16.60
2019-05-17T08:53:57.026Z,16.70
2019-05-17T08:56:24.471Z,16.70
2019-05-17T08:58:51.871Z,16.80
2019-05-17T09:01:19.677Z,16.80
2019-05-17T09:03:47.394Z,16.90
2019-05-17T09:06:14.814Z,17.00
2019-05-17T09:08:42.210Z,17.10
2019-05-17T09:11:10.052Z,17.20
2019-05-17T09:13:39.913Z,17.20
2019-05-17T09:16:06.650Z,17.30
2019-05-17T09:18:34.282Z,17.40
2019-05-17T09:21:01.681Z,17.50
2019-05-17T09:23:30.446Z,17.60
2019-05-17T09:25:59.556Z,17.70
2019-05-17T09:28:27.178Z,17.80
2019-05-17T09:30:54.662Z,17.80
2019-05-17T09:33:22.114Z,18.00
2019-05-17T09:35:50.087Z,18.00
2019-05-17T09:38:17.610Z,18.10
2019-05-17T09:40:45.043Z,18.20
2019-05-17T09:43:14.898Z,18.30
2019-05-17T09:45:41.944Z,18.40
2019-05-17T09:48:10.410Z,18.40
2019-05-17T09:50:39.817Z,18.50
2019-05-17T09:53:07.273Z,18.60
2019-05-17T09:55:34.806Z,18.50
2019-05-17T09:58:02.203Z,18.60
2019-05-17T10:00:29.998Z,18.70
2019-05-17T10:02:59.900Z,18.70
2019-05-17T10:05:27.114Z,18.70
2019-05-17T10:07:54.526Z,18.80
2019-05-17T10:10:21.999Z,18.80
2019-05-17T10:12:49.826Z,19.00
2019-05-17T10:15:20.752Z,19.00
2019-05-17T10:17:48.113Z,19.00
2019-05-17T10:20:16.018Z,19.10
2019-05-17T10:22:43.408Z,19.20
2019-05-17T10:25:11.111Z,19.30
2019-05-17T10:27:40.755Z,19.40
2019-05-17T10:30:10.270Z,19.40
2019-05-17T10:32:40.703Z,19.40
2019-05-17T10:35:07.582Z,19.50
2019-05-17T10:37:34.979Z,19.60
2019-05-17T10:40:02.690Z,19.70
2019-05-17T10:42:30.570Z,19.80
2019-05-17T10:44:59.938Z,20.00
2019-05-17T10:47:30.031Z,20.20
2019-05-17T10:49:57.213Z,20.20
2019-05-17T10:52:24.607Z,20.30
2019-05-17T10:54:52.095Z,20.40
2019-05-17T10:57:19.581Z,20.40
2019-05-17T10:59:47.079Z,20.40
2019-05-17T11:02:14.515Z,20.50
2019-05-17T11:04:41.915Z,20.50
2019-05-17T11:07:10.461Z,20.60
2019-05-17T11:09:40.255Z,20.60
2019-05-17T11:12:07.463Z,20.80
2019-05-17T11:14:48.978Z,20.80
2019-05-17T11:17:04.297Z,20.80
2019-05-17T11:19:32.004Z,20.90
2019-05-17T11:21:59.394Z,21.10
2019-05-17T11:24:26.818Z,21.10
2019-05-17T11:26:54.209Z,21.10
2019-05-17T11:29:21.610Z,21.20
2019-05-17T11:31:49.140Z,21.30
2019-05-17T11:34:16.551Z,21.40
2019-05-17T11:36:43.964Z,21.40
2019-05-17T11:39:11.967Z,21.50
2019-05-17T11:41:39.364Z,21.60
2019-05-17T11:44:06.774Z,21.70
2019-05-17T11:46:36.461Z,21.70
2019-05-17T11:49:04.228Z,21.80
2019-05-17T11:51:31.610Z,21.90
2019-05-17T11:53:59.305Z,22.00
2019-05-17T11:56:26.695Z,22.00
2019-05-17T11:58:54.090Z,22.10
2019-05-17T12:01:21.525Z,22.20
2019-05-17T12:03:48.929Z,22.30
2019-05-17T12:06:16.357Z,22.40
2019-05-17T12:08:43.871Z,22.60
2019-05-17T12:11:11.290Z,22.60
2019-05-17T12:13:38.708Z,22.70
2019-05-17T12:16:06.161Z,22.90
2019-05-17T12:18:33.831Z,22.80
2019-05-17T12:21:02.195Z,23.00
2019-05-17T12:23:29.770Z,23.20
2019-05-17T12:25:57.186Z,23.30
2019-05-17T12:28:24.594Z,23.50
2019-05-17T12:30:52.273Z,23.60
2019-05-17T12:33:19.692Z,23.80
2019-05-17T12:35:47.081Z,24.00
2019-05-17T12:38:14.771Z,24.00
2019-05-17T12:40:42.180Z,24.10
2019-05-17T12:43:09.591Z,24.20
2019-05-17T12:45:37.021Z,24.40
2019-05-17T12:48:04.423Z,24.60
2019-05-17T12:50:37.951Z,24.60
2019-05-17T12:53:05.458Z,24.40
2019-05-17T12:55:32.863Z,24.40
2019-05-17T12:58:00.306Z,24.20
2019-05-17T13:00:27.746Z,23.70
2019-05-17T13:02:55.162Z,23.40
2019-05-17T13:05:22.649Z,23.20
2019-05-17T13:07:50.131Z,23.70
2019-05-17T13:10:18.190Z,24.00
2019-05-17T13:12:45.596Z,24.40
2019-05-17T13:15:13.535Z,24.60
2019-05-17T13:17:41.186Z,24.90
2019-05-17T13:20:09.021Z,25.10
2019-05-17T13:22:36.663Z,25.20
2019-05-17T13:25:04.778Z,25.00
2019-05-17T13:27:32.162Z,25.00
2019-05-17T13:29:59.850Z,25.20
2019-05-17T13:32:27.243Z,25.30
2019-05-17T13:34:54.658Z,24.60
2019-05-17T13:37:22.239Z,24.20
2019-05-17T13:39:49.642Z,24.70
2019-05-17T13:42:17.034Z,24.20
2019-05-17T13:44:44.520Z,23.90
2019-05-17T13:47:11.925Z,23.50
2019-05-17T13:49:39.319Z,23.40
2019-05-17T13:52:06.912Z,24.10
2019-05-17T13:54:34.303Z,24.40
2019-05-17T13:57:01.855Z,24.60
2019-05-17T13:59:29.391Z,25.60
2019-05-17T14:01:56.802Z,26.50
2019-05-17T14:04:24.186Z,27.20
2019-05-17T14:06:51.779Z,27.30
2019-05-17T14:09:19.194Z,26.40
2019-05-17T14:11:46.606Z,26.90
2019-05-17T14:14:14.034Z,27.60
2019-05-17T14:16:41.437Z,27.60
2019-05-17T14:19:09.164Z,26.80
2019-05-17T14:21:36.866Z,26.20
2019-05-17T14:24:04.335Z,25.80
2019-05-17T14:26:31.722Z,25.70
2019-05-17T14:28:59.357Z,25.40
2019-05-17T14:31:26.755Z,25.70
2019-05-17T14:33:54.163Z,26.10
2019-05-17T14:36:21.957Z,26.00
2019-05-17T14:38:49.364Z,25.50
2019-05-17T14:41:16.774Z,25.10
2019-05-17T14:43:44.326Z,24.80
2019-05-17T14:46:11.738Z,24.40
2019-05-17T14:48:39.135Z,24.10
2019-05-17T14:51:06.926Z,24.00
2019-05-17T14:53:37.284Z,23.80
2019-05-17T14:56:04.717Z,23.80
2019-05-17T14:58:32.180Z,23.80
2019-05-17T15:00:59.597Z,23.90
2019-05-17T15:03:26.990Z,23.80
2019-05-17T15:05:54.440Z,23.80
2019-05-17T15:08:21.837Z,23.90
2019-05-17T15:10:49.227Z,24.10
2019-05-17T15:13:16.677Z,24.10
2019-05-17T15:15:44.066Z,24.60
2019-05-17T15:18:11.972Z,24.90
2019-05-17T15:20:39.602Z,25.70
2019-05-17T15:23:07.251Z,27.10
2019-05-17T15:25:34.651Z,27.70
2019-05-17T15:28:02.101Z,27.10
2019-05-17T15:30:29.498Z,26.60
2019-05-17T15:32:56.898Z,25.80
2019-05-17T15:35:24.351Z,25.30
2019-05-17T15:37:51.754Z,25.00
2019-05-17T15:40:19.165Z,24.70
2019-05-17T15:42:46.632Z,24.80
2019-05-17T15:45:14.197Z,24.90
2019-05-17T15:47:41.560Z,25.60
2019-05-17T15:50:09.023Z,26.80
2019-05-17T15:52:36.417Z,26.60
2019-05-17T15:55:04.243Z,27.10
2019-05-17T15:57:31.670Z,26.50
2019-05-17T15:59:59.077Z,27.40
2019-05-17T16:02:26.493Z,26.80
2019-05-17T16:04:53.910Z,26.50
2019-05-17T16:07:21.303Z,27.30
2019-05-17T16:09:48.825Z,28.00
2019-05-17T16:12:16.311Z,28.60
2019-05-17T16:14:43.718Z,28.60
2019-05-17T16:17:11.118Z,28.40
2019-05-17T16:19:38.845Z,29.00
2019-05-17T16:22:06.406Z,28.50
2019-05-17T16:24:34.311Z,28.30
2019-05-17T16:27:01.748Z,27.90
2019-05-17T16:29:29.167Z,27.90
2019-05-17T16:31:56.556Z,27.90
2019-05-17T16:34:24.965Z,27.90
2019-05-17T16:36:52.365Z,27.90
2019-05-17T16:39:19.771Z,26.90
2019-05-17T16:41:47.239Z,26.30
2019-05-17T16:44:14.824Z,26.10
2019-05-17T16:46:42.246Z,25.70
2019-05-17T16:49:09.828Z,25.40
2019-05-17T16:51:37.234Z,25.40
2019-05-17T16:54:04.644Z,25.00
2019-05-17T16:56:32.090Z,24.60
2019-05-17T16:58:59.508Z,24.20
2019-05-17T17:01:28.822Z,23.70
2019-05-17T17:03:56.553Z,23.10
2019-05-17T17:06:23.985Z,22.50
2019-05-17T17:08:51.374Z,22.10
2019-05-17T17:11:18.871Z,21.70
2019-05-17T17:13:46.333Z,21.60
2019-05-17T17:16:13.735Z,21.50
2019-05-17T17:18:41.317Z,21.20
2019-05-17T17:21:08.896Z,21.10
2019-05-17T17:23:36.586Z,21.00
2019-05-17T17:26:04.318Z,20.90
2019-05-17T17:28:31.732Z,20.60
2019-05-17T17:30:59.150Z,20.40
2019-05-17T17:33:26.706Z,20.40
2019-05-17T17:35:54.118Z,20.40
2019-05-17T17:38:21.519Z,20.40
2019-05-17T17:40:48.970Z,20.40
2019-05-17T17:43:16.469Z,20.30
2019-05-17T17:45:43.972Z,20.00
2019-05-17T17:48:11.578Z,19.80
2019-05-17T17:50:38.978Z,19.60
2019-05-17T17:53:06.798Z,19.40
2019-05-17T17:55:34.578Z,19.20
2019-05-17T17:58:01.977Z,19.00
2019-05-17T18:00:29.411Z,18.80
2019-05-17T18:02:56.858Z,18.70
2019-05-17T18:05:25.145Z,18.50
2019-05-17T18:07:52.771Z,18.20
2019-05-17T18:10:30.186Z,18.00
2019-05-17T18:12:57.693Z,17.90
2019-05-17T18:15:33.282Z,17.70
2019-05-17T18:18:00.678Z,17.60
2019-05-17T18:20:28.367Z,17.50
2019-05-17T18:22:56.563Z,17.30
2019-05-17T18:25:23.994Z,17.10
2019-05-17T18:27:51.414Z,16.90
2019-05-17T18:30:19.059Z,16.80
2019-05-17T18:32:46.464Z,16.60
2019-05-17T18:35:14.082Z,16.50
2019-05-17T18:37:41.698Z,16.40
2019-05-17T18:40:09.426Z,16.30
2019-05-17T18:42:36.832Z,16.10
2019-05-17T18:45:04.976Z,16.00
2019-05-17T18:47:32.379Z,15.80
2019-05-17T18:49:59.786Z,15.70
2019-05-17T18:52:27.215Z,15.60
2019-05-17T18:54:54.610Z,15.40
2019-05-17T18:57:22.021Z,15.20
2019-05-17T18:59:50.823Z,15.10
2019-05-17T19:02:18.394Z,15.00
2019-05-17T19:04:45.792Z,14.90
2019-05-17T19:07:13.265Z,14.80
2019-05-17T19:09:40.647Z,14.70
2019-05-17T19:12:08.050Z,14.60
2019-05-17T19:14:43.012Z,14.50
2019-05-17T19:17:04.714Z,14.40
2019-05-17T19:19:32.346Z,14.30
2019-05-17T19:22:00.180Z,14.20
2019-05-17T19:24:27.599Z,14.20
2019-05-17T19:26:54.990Z,14.10
2019-05-17T19:29:22.421Z,14.00
2019-05-17T19:31:49.834Z,13.80
2019-05-17T19:34:17.142Z,13.70
2019-05-17T19:36:44.601Z,13.70
2019-05-17T19:39:11.985Z,13.50
2019-05-17T19:41:39.372Z,13.40
2019-05-17T19:44:07.164Z,13.30
2019-05-17T19:46:34.637Z,13.20
2019-05-17T19:49:02.043Z,13.20
2019-05-17T19:51:29.518Z,13.10
2019-05-17T19:53:56.928Z,13.10
2019-05-17T19:56:24.314Z,13.00
2019-05-17T19:58:51.764Z,13.00
2019-05-17T20:01:19.160Z,13.00
2019-05-17T20:03:46.570Z,12.90
2019-05-17T20:06:14.139Z,12.90
2019-05-17T20:08:41.551Z,12.80
2019-05-17T20:11:08.981Z,12.70
2019-05-17T20:13:36.519Z,12.70
2019-05-17T20:16:03.938Z,12.70
2019-05-17T20:18:31.345Z,12.70
2019-05-17T20:20:58.794Z,12.60
2019-05-17T20:23:26.588Z,12.60
2019-05-17T20:25:53.992Z,12.60
2019-05-17T20:28:21.798Z,12.50
2019-05-17T20:30:49.197Z,12.50
2019-05-17T20:33:16.594Z,12.50
2019-05-17T20:35:44.186Z,12.40
2019-05-17T20:38:11.596Z,12.40
2019-05-17T20:40:38.986Z,12.40
2019-05-17T20:43:06.676Z,12.30
2019-05-17T20:45:34.098Z,12.30
2019-05-17T20:48:01.504Z,12.20
2019-05-17T20:50:29.086Z,12.20
2019-05-17T20:52:56.572Z,12.20
2019-05-17T20:55:26.873Z,12.20
2019-05-17T20:57:53.223Z,12.10
2019-05-17T21:00:20.834Z,12.10
2019-05-17T21:02:48.260Z,12.10
2019-05-17T21:05:18.308Z,12.10
2019-05-17T21:07:45.827Z,12.00
2019-05-17T21:10:15.254Z,12.00
2019-05-17T21:12:42.705Z,12.00
2019-05-17T21:15:10.602Z,12.00
2019-05-17T21:17:37.979Z,11.90
2019-05-17T21:20:05.810Z,11.90
2019-05-17T21:22:34.070Z,11.90
2019-05-17T21:25:01.587Z,11.80
2019-05-17T21:27:29.042Z,11.80
2019-05-17T21:29:56.474Z,11.90
2019-05-17T21:32:23.880Z,12.00
2019-05-17T21:34:51.329Z,12.10
2019-05-17T21:37:18.730Z,12.10
2019-05-17T21:39:47.145Z,12.10
2019-05-17T21:42:14.606Z,12.10
2019-05-17T21:44:42.012Z,12.10
2019-05-17T21:47:09.394Z,12.00
2019-05-17T21:49:36.967Z,12.00
2019-05-17T21:52:04.864Z,12.00
2019-05-17T21:54:32.284Z,12.00
2019-05-17T21:56:59.730Z,12.00
2019-05-17T21:59:27.143Z,12.00
2019-05-17T22:01:54.824Z,12.00
2019-05-17T22:04:22.291Z,12.00
2019-05-17T22:06:49.682Z,12.00
2019-05-17T22:09:17.071Z,12.10
2019-05-17T22:11:47.206Z,12.10
2019-05-17T22:14:15.065Z,12.10
2019-05-17T22:16:42.466Z,12.30
2019-05-17T22:19:09.910Z,12.30
2019-05-17T22:21:37.631Z,12.30
2019-05-17T22:24:05.047Z,12.30
2019-05-17T22:26:33.771Z,12.20
2019-05-17T22:29:01.488Z,12.30
2019-05-17T22:31:28.887Z,12.30
2019-05-17T22:33:56.278Z,12.40
2019-05-17T22:36:23.856Z,12.30
2019-05-17T22:38:51.250Z,12.30
2019-05-17T22:41:18.654Z,12.30
2019-05-17T22:43:46.284Z,12.30
2019-05-17T22:46:13.675Z,12.30
2019-05-17T22:48:41.058Z,12.30
2019-05-17T22:51:08.497Z,12.30
2019-05-17T22:53:35.898Z,12.30
2019-05-17T22:56:03.378Z,12.30
2019-05-17T22:58:31.019Z,12.30
2019-05-17T23:00:58.427Z,12.20
2019-05-17T23:03:26.484Z,12.20
2019-05-17T23:05:53.911Z,12.10
2019-05-17T23:08:21.334Z,12.10
2019-05-17T23:10:48.730Z,12.10
2019-05-17T23:13:16.310Z,12.10
2019-05-17T23:16:02.254Z,12.20
2019-05-17T23:18:32.002Z,12.20
2019-05-17T23:20:59.836Z,12.10
2019-05-17T23:23:27.429Z,12.10
2019-05-17T23:25:54.823Z,12.10
2019-05-17T23:28:22.471Z,12.20
2019-05-17T23:30:49.857Z,12.20
2019-05-17T23:33:17.258Z,12.20
2019-05-17T23:35:44.728Z,12.20
2019-05-17T23:38:12.115Z,12.20
2019-05-17T23:40:39.514Z,12.20
2019-05-17T23:43:06.941Z,12.20
2019-05-17T23:45:34.334Z,12.20
2019-05-17T23:48:01.735Z,12.20
2019-05-17T23:50:29.154Z,12.20
2019-05-17T23:52:56.545Z,12.10
2019-05-17T23:55:23.921Z,12.10
2019-05-17T23:57:51.456Z,12.10
